Kinkaid, Illinois
Current Conditions -  °F | °C
As of 7:52 PM on Saturday 20 Dec 2014 (Local Time) from KMDH Reporting Station
Overcast Overcast  
Wind Chill: 31°   Ceiling: 2900
Heat Index: 36°   Visibility: 10mi
Dew Point: 29°   Wind: 6mph
Humidity: 76%   Direction: 110°ESE
Pressure: 30.28"   Gusts: NA
Location:  37.8835°N, 89.4465°W
Report Text: KMDH 210152Z AUTO 11005KT 10SM OVC029 02/M02 A3028 RMK AO2 SLP258 T00221017
Loading
Personal Weather Stations






























Interactive Weather Map New forecast layout! Learn more

10-Day Weather Forecast

Advertisements
Track Severe Weather on mobile